Time;durP1;ratioP1;P1;durP2;ratioP2;P2;SDS_P1;SDS_P2;PMS_P1;PMS_P2;Temp;Humidity;BMP_temperature;BMP_pressure;BME280_temperature;BME280_humidity;BME280_pressure;Samples;Min_cycle;Max_cycle;Signal;HPM_P1;HPM_P2
2022/01/25 00:26:41;;;;;;;53.10;34.03;;;;;;;1.78;91.64;103461.03;4775238;30;20043;-82
2022/01/25 00:29:11;;;;;;;48.45;32.28;;;;;;;1.79;91.72;103459.28;4758329;30;20070;-82
2022/01/25 00:31:39;;;;;;;49.67;31.60;;;;;;;1.80;92.16;103463.69;4771946;30;20444;-81
2022/01/25 00:34:06;;;;;;;50.28;33.72;;;;;;;1.79;91.31;103461.91;4757270;29;20035;-82
2022/01/25 00:36:32;;;;;;;50.17;32.90;;;;;;;1.79;91.38;103457.56;4788159;29;20428;-82
2022/01/25 00:38:58;;;;;;;49.35;32.05;;;;;;;1.79;91.42;103464.53;4772358;30;20061;-82
2022/01/25 00:41:25;;;;;;;50.28;33.67;;;;;;;1.80;91.37;103468.91;4772510;30;20108;-82
2022/01/25 00:43:51;;;;;;;52.15;33.30;;;;;;;1.80;91.41;103469.81;4788479;29;20035;-82
2022/01/25 00:46:20;;;;;;;52.83;32.42;;;;;;;1.79;91.42;103457.56;4787219;29;20039;-82
2022/01/25 00:48:49;;;;;;;48.90;30.98;;;;;;;1.80;91.39;103453.25;4743058;30;20062;-82
2022/01/25 00:54:04;;;;;;;47.75;32.67;;;;;;;1.82;91.38;103459.47;4788449;29;20035;-82
2022/01/25 00:56:33;;;;;;;50.90;34.03;;;;;;;1.79;91.85;103457.56;4787788;29;20043;-82
2022/01/25 00:59:00;;;;;;;50.67;33.15;;;;;;;1.79;91.53;103452.34;4786651;29;20031;-82
2022/01/25 01:01:27;;;;;;;48.13;32.75;;;;;;;1.78;91.39;103447.94;4788364;29;20108;-82
2022/01/25 01:03:53;;;;;;;50.67;32.17;;;;;;;1.79;91.77;103446.25;4785828;29;20043;-82
2022/01/25 01:06:19;;;;;;;40.83;27.27;;;;;;;1.83;91.65;103456.03;4771593;29;20104;-82
2022/01/25 01:08:45;;;;;;;55.90;34.60;;;;;;;1.85;91.37;103464.84;4771332;30;20035;-82
2022/01/25 01:11:18;;;;;;;51.45;32.65;;;;;;;1.81;91.79;103447.22;4771526;30;20039;-82
2022/01/25 01:16:50;;;;;;;51.58;32.80;;;;;;;1.87;91.66;103463.22;4773205;29;20042;-82
2022/01/25 01:30:39;;;;;;;47.28;31.00;;;;;;;1.93;91.77;103463.59;4756146;30;20047;-82
2022/01/25 01:44:04;;;;;;;52.67;33.47;;;;;;;1.94;91.26;103465.38;4768232;30;20102;-81
2022/01/25 01:49:00;;;;;;;51.63;34.47;;;;;;;1.94;91.66;103463.66;4753469;30;20051;-81
2022/01/25 01:51:32;;;;;;;49.67;33.75;;;;;;;1.92;91.34;103465.28;4768038;30;20032;-81
2022/01/25 01:54:10;;;;;;;52.70;33.83;;;;;;;1.97;91.57;103476.00;4769324;30;20382;-81
2022/01/25 01:56:38;;;;;;;52.22;33.80;;;;;;;1.97;91.98;103469.88;4783492;30;20043;-81
2022/01/25 01:59:07;;;;;;;48.90;34.13;;;;;;;1.98;92.10;103459.50;4785772;29;20039;-81
2022/01/25 02:01:35;;;;;;;55.50;34.35;;;;;;;1.98;91.87;103463.81;4770988;30;20039;-81
2022/01/25 02:04:04;;;;;;;49.05;33.45;;;;;;;2.01;91.50;103464.00;4770881;30;20043;-81
2022/01/25 02:06:29;;;;;;;51.45;34.45;;;;;;;2.00;91.77;103450.03;4787374;29;20031;-81
2022/01/25 02:08:56;;;;;;;52.60;33.63;;;;;;;2.00;91.31;103450.03;4741306;30;20182;-81
2022/01/25 02:11:22;;;;;;;53.08;35.58;;;;;;;2.02;91.78;103458.84;4770651;29;20116;-81
2022/01/25 02:13:48;;;;;;;57.97;35.50;;;;;;;2.00;91.72;103452.63;4770625;30;20023;-82
2022/01/25 02:16:33;;;;;;;56.88;35.38;;;;;;;1.98;91.90;103461.19;4770488;30;20334;-81
2022/01/25 02:24:34;;;;;;;55.90;35.67;;;;;;;2.03;91.82;103446.66;4768834;30;20472;-82
2022/01/25 02:27:01;;;;;;;52.03;34.08;;;;;;;2.02;91.92;103444.88;4752796;30;20106;-82
2022/01/25 02:29:27;;;;;;;57.33;34.80;;;;;;;1.99;91.61;103429.03;4768868;30;20063;-81
2022/01/25 02:31:54;;;;;;;50.55;32.45;;;;;;;1.99;92.07;103429.94;4768930;30;20051;-81
2022/01/25 02:34:20;;;;;;;56.33;36.17;;;;;;;2.03;91.58;103444.06;4768741;30;20104;-81
2022/01/25 02:36:45;;;;;;;56.53;36.53;;;;;;;2.05;92.64;103434.59;4752667;30;20039;-81
2022/01/25 02:39:11;;;;;;;54.72;36.28;;;;;;;2.06;91.76;103431.19;4767386;30;20416;-81
2022/01/25 02:41:37;;;;;;;54.40;36.55;;;;;;;2.04;92.52;103430.19;4768664;30;20063;-81
2022/01/25 02:44:05;;;;;;;54.17;36.58;;;;;;;2.06;92.01;103432.06;4751903;30;20062;-81
2022/01/25 02:48:58;;;;;;;57.83;38.08;;;;;;;2.05;92.28;103439.81;4752510;30;20655;-81
2022/01/25 02:51:28;;;;;;;58.70;37.88;;;;;;;2.05;92.18;103431.97;4768627;30;20028;-81
2022/01/25 02:53:55;;;;;;;59.70;38.70;;;;;;;2.06;91.72;103429.47;4767292;30;20071;-81
2022/01/25 02:56:22;;;;;;;57.45;36.85;;;;;;;2.03;92.02;103431.91;4752302;30;20393;-81
2022/01/25 02:58:49;;;;;;;57.65;36.20;;;;;;;2.07;91.76;103440.81;4768943;30;20047;-81
2022/01/25 03:01:15;;;;;;;59.03;36.60;;;;;;;2.07;92.50;103441.69;4752178;30;20027;-81
2022/01/25 03:03:41;;;;;;;57.78;35.22;;;;;;;2.07;92.53;103427.75;4752408;30;20039;-81
2022/01/25 03:06:07;;;;;;;54.03;35.45;;;;;;;2.08;92.50;103427.84;4768506;30;20047;-81
2022/01/25 03:08:33;;;;;;;56.25;35.40;;;;;;;2.09;91.97;103423.50;4752204;30;20127;-81
2022/01/25 03:10:58;;;;;;;52.75;32.78;;;;;;;2.10;92.31;103423.59;4767178;30;20118;-81
2022/01/25 03:13:31;;;;;;;52.30;34.17;;;;;;;2.11;92.39;103425.38;4752332;30;20074;-82
2022/01/25 03:16:04;;;;;;;58.70;37.00;;;;;;;2.10;92.73;103415.75;4770640;30;20133;-81
2022/01/25 03:23:45;;;;;;;54.80;34.03;;;;;;;2.11;92.17;103412.31;4752258;30;20054;-81
2022/01/25 03:26:11;;;;;;;58.20;36.50;;;;;;;2.10;91.77;103410.53;4751938;30;20081;-81
2022/01/25 03:28:36;;;;;;;60.05;37.30;;;;;;;2.09;91.96;103413.94;4739928;30;20146;-81
2022/01/25 03:31:03;;;;;;;58.78;36.17;;;;;;;2.11;92.23;103414.94;4755778;30;20047;-81
2022/01/25 03:33:29;;;;;;;57.75;35.47;;;;;;;2.10;92.13;103405.28;4770549;30;20054;-81
2022/01/25 03:35:54;;;;;;;60.80;37.35;;;;;;;2.12;91.90;103395.78;4755163;30;20036;-81
2022/01/25 03:38:20;;;;;;;54.97;35.05;;;;;;;2.13;92.64;103400.22;4769734;30;20054;-81
2022/01/25 03:40:46;;;;;;;54.20;33.75;;;;;;;2.13;92.18;103405.44;4770173;30;20202;-81
2022/01/25 03:43:14;;;;;;;57.03;35.30;;;;;;;2.12;92.41;103401.03;4755300;30;20131;-81
2022/01/25 03:45:44;;;;;;;56.63;35.42;;;;;;;2.13;92.57;103402.84;4755512;30;20454;-81
2022/01/25 03:50:39;;;;;;;60.38;38.83;;;;;;;2.12;92.12;103402.75;4770226;30;20114;-80
2022/01/25 03:53:06;;;;;;;58.70;37.10;;;;;;;2.13;91.75;103415.03;4755461;30;20511;-80
2022/01/25 03:55:32;;;;;;;60.40;37.65;;;;;;;2.14;92.49;103422.03;4777652;30;20155;-81
2022/01/25 03:57:58;;;;;;;53.42;33.65;;;;;;;2.13;91.93;103422.88;4789357;29;20134;-80
2022/01/25 04:00:23;;;;;;;59.75;37.85;;;;;;;2.15;92.27;103419.50;4773233;30;20035;-81
2022/01/25 04:02:55;;;;;;;61.65;37.45;;;;;;;2.17;92.20;103416.97;4787925;29;20115;-81
2022/01/25 04:05:35;;;;;;;;;;;;;;;2.23;91.91;103419.03;4773303;30;20054;-80
2022/01/25 04:08:01;;;;;;;54.58;34.35;;;;;;;2.20;92.34;103413.59;4789274;29;19928;-80
2022/01/25 04:10:26;;;;;;;54.85;34.92;;;;;;;2.19;91.60;103419.66;4772809;29;20039;-80
2022/01/25 04:12:52;;;;;;;56.42;36.42;;;;;;;2.19;92.64;103420.56;4773043;30;20050;-80
2022/01/25 04:15:18;;;;;;;60.15;37.63;;;;;;;2.19;92.14;103424.91;4779941;30;20123;-81
2022/01/25 04:17:48;;;;;;;61.65;37.47;;;;;;;2.20;92.16;103422.38;4769964;30;20055;-81
2022/01/25 04:20:20;;;;;;;64.07;39.15;;;;;;;2.20;92.37;103418.84;4770094;30;20497;-80
2022/01/25 04:25:30;;;;;;;60.30;39.17;;;;;;;2.21;92.12;103413.72;4771254;30;20139;-80
2022/01/25 04:27:56;;;;;;;59.88;36.97;;;;;;;2.23;92.07;103411.19;4739913;30;20052;-80
2022/01/25 04:30:21;;;;;;;59.40;38.47;;;;;;;2.23;91.76;103408.56;4770096;30;20066;-81
2022/01/25 04:32:52;;;;;;;64.03;41.00;;;;;;;2.24;92.33;103405.13;4769615;30;20047;-81
2022/01/25 05:02:02;;;;;;;64.25;38.53;;;;;;;2.25;91.41;103393.84;4786861;29;20192;-80
2022/01/25 05:04:37;;;;;;;62.13;38.30;;;;;;;2.25;91.52;103388.59;4786734;29;20067;-80
2022/01/25 05:07:18;;;;;;;60.72;38.72;;;;;;;2.24;91.63;103387.72;4771975;30;20047;-80
2022/01/25 05:09:46;;;;;;;65.70;38.28;;;;;;;2.27;92.00;103386.97;4744198;30;20086;-80
2022/01/25 05:12:12;;;;;;;62.28;38.78;;;;;;;2.27;91.48;103390.47;4772026;29;20390;-80
2022/01/25 05:14:54;;;;;;;64.82;38.72;;;;;;;2.26;92.10;103393.94;4756856;30;20092;-80
2022/01/25 05:17:29;;;;;;;58.42;35.38;;;;;;;2.26;91.94;103393.94;4741138;30;20120;-80
2022/01/25 05:24:47;;;;;;;66.20;40.00;;;;;;;2.28;92.00;103394.91;4753681;30;20134;-80
2022/01/25 05:27:15;;;;;;;61.55;38.72;;;;;;;2.27;91.84;103380.03;4768380;30;20353;-80
2022/01/25 05:29:40;;;;;;;64.85;39.38;;;;;;;2.29;91.54;103386.25;4753682;30;20082;-80
2022/01/25 05:32:06;;;;;;;63.83;37.60;;;;;;;2.28;91.70;103394.03;4769696;30;20466;-80
2022/01/25 05:34:32;;;;;;;66.03;37.83;;;;;;;2.26;91.73;103390.44;4769460;30;20461;-80
2022/01/25 05:36:58;;;;;;;64.47;38.97;;;;;;;2.25;92.16;103391.22;4753376;30;20123;-80
2022/01/25 05:39:28;;;;;;;60.05;37.08;;;;;;;2.26;91.92;103388.69;4753305;30;20044;-80
2022/01/25 05:41:57;;;;;;;67.18;40.47;;;;;;;2.24;91.98;103392.94;4739211;30;20040;-80
2022/01/25 05:44:40;;;;;;;65.65;39.55;;;;;;;2.25;92.24;103386.00;4738704;30;20063;-80
2022/01/25 05:47:07;;;;;;;69.35;40.10;;;;;;;2.24;92.20;103385.09;4767881;30;20059;-80
2022/01/25 05:49:43;;;;;;;62.97;38.50;;;;;;;2.24;91.58;103389.44;4753097;30;20046;-80
2022/01/25 05:52:09;;;;;;;60.58;38.03;;;;;;;2.25;92.20;103392.16;4767892;30;20505;-80
2022/01/25 05:54:36;;;;;;;65.40;41.10;;;;;;;2.25;92.09;103386.00;4752185;30;20130;-80
2022/01/25 05:57:02;;;;;;;67.70;39.28;;;;;;;2.25;91.88;103386.91;4770626;29;20055;-80
2022/01/25 05:59:28;;;;;;;61.40;35.80;;;;;;;2.25;91.82;103386.00;4770539;29;20039;-80
2022/01/25 06:01:53;;;;;;;51.28;32.55;;;;;;;2.26;92.24;103388.69;4785564;29;20046;-80
2022/01/25 06:04:21;;;;;;;63.50;39.15;;;;;;;2.26;92.35;103383.47;4786735;29;20472;-80
2022/01/25 06:06:47;;;;;;;61.05;36.70;;;;;;;2.24;91.88;103385.09;4800460;29;20051;-80
2022/01/25 06:09:13;;;;;;;63.72;39.75;;;;;;;2.27;91.97;103387.88;4800626;29;20042;-80
2022/01/25 06:11:38;;;;;;;59.65;36.88;;;;;;;2.28;92.31;103386.19;4800558;29;20460;-80
2022/01/25 06:14:05;;;;;;;64.05;40.22;;;;;;;2.28;91.78;103394.03;4785565;29;20336;-80
2022/01/25 06:16:30;;;;;;;64.20;38.88;;;;;;;2.27;91.74;103394.81;4770373;30;20043;-80
2022/01/25 06:18:57;;;;;;;64.88;40.08;;;;;;;2.27;92.25;103379.13;4770558;30;20437;-80
2022/01/25 06:21:22;;;;;;;65.72;40.25;;;;;;;2.27;92.13;103379.13;4770410;29;20082;-80
2022/01/25 06:23:49;;;;;;;62.08;38.15;;;;;;;2.30;92.02;103384.53;4755918;30;20055;-80
2022/01/25 06:26:14;;;;;;;64.90;38.38;;;;;;;2.29;91.98;103374.88;4786487;30;20038;-81
2022/01/25 06:28:40;;;;;;;60.60;38.22;;;;;;;2.30;92.66;103382.84;4755372;30;20362;-81
2022/01/25 06:31:07;;;;;;;63.17;39.17;;;;;;;2.30;91.99;103379.28;4770126;30;20054;-80
2022/01/25 06:33:33;;;;;;;68.47;40.13;;;;;;;2.30;92.49;103392.38;4769775;29;20074;-80
2022/01/25 06:35:58;;;;;;;67.90;39.38;;;;;;;2.29;92.12;103382.75;4786114;29;20496;-80
2022/01/25 06:38:26;;;;;;;66.18;40.25;;;;;;;2.30;92.74;103380.22;4755343;30;20042;-80
2022/01/25 06:40:52;;;;;;;65.93;41.10;;;;;;;2.31;92.09;103382.00;4784756;30;20107;-80
2022/01/25 06:43:17;;;;;;;63.10;38.40;;;;;;;2.33;92.02;103380.38;4769216;30;20035;-80
2022/01/25 06:45:45;;;;;;;68.65;41.17;;;;;;;2.32;92.27;103385.50;4769902;29;20050;-81
2022/01/25 06:48:11;;;;;;;70.88;40.53;;;;;;;2.32;91.98;103396.84;4785414;29;20031;-80
2022/01/25 06:50:36;;;;;;;68.25;42.08;;;;;;;2.32;92.54;103385.50;4769356;29;20062;-80
2022/01/25 06:53:02;;;;;;;73.18;40.05;;;;;;;2.31;92.05;103388.94;4785415;29;20039;-80
2022/01/25 06:55:27;;;;;;;57.08;35.47;;;;;;;2.30;91.77;103390.69;4747504;30;20154;-80
2022/01/25 06:57:53;;;;;;;58.88;36.33;;;;;;;2.27;92.37;103380.03;4722476;30;20035;-80
2022/01/25 07:00:21;;;;;;;69.95;39.40;;;;;;;2.31;92.49;103395.06;4736973;30;20047;-80
2022/01/25 07:02:47;;;;;;;73.53;41.97;;;;;;;2.30;92.12;103397.59;4767198;30;20321;-80
2022/01/25 07:05:13;;;;;;;65.55;38.50;;;;;;;2.30;92.05;103395.91;4767643;30;20051;-80
2022/01/25 07:07:39;;;;;;;62.03;36.53;;;;;;;2.32;92.36;103409.03;4736842;30;20053;-80
2022/01/25 07:10:07;;;;;;;71.65;40.30;;;;;;;2.31;91.80;103399.41;4768267;30;20061;-80
2022/01/25 07:12:34;;;;;;;69.10;41.70;;;;;;;2.32;91.62;103403.81;4752126;30;20043;-80
2022/01/25 07:14:59;;;;;;;74.78;42.97;;;;;;;2.34;92.05;103404.78;4757260;30;20051;-80
2022/01/25 07:17:25;;;;;;;78.00;43.63;;;;;;;2.28;91.60;103391.41;4754102;30;20043;-80
2022/01/25 07:19:50;;;;;;;82.28;46.50;;;;;;;2.30;91.89;103405.44;4784151;29;20040;-80
2022/01/25 07:22:17;;;;;;;82.70;46.00;;;;;;;2.32;91.14;103411.66;4785417;29;20122;-80
2022/01/25 07:24:42;;;;;;;72.82;42.28;;;;;;;2.32;91.40;103401.19;4754537;30;20366;-80
2022/01/25 07:27:08;;;;;;;87.05;47.13;;;;;;;2.32;91.43;103409.03;4769401;29;20039;-80
2022/01/25 07:29:34;;;;;;;94.30;50.22;;;;;;;2.32;91.12;103409.03;4768903;29;20159;-80
2022/01/25 07:32:00;;;;;;;79.18;44.92;;;;;;;2.30;91.15;103408.97;4769071;29;20051;-80
2022/01/25 07:34:26;;;;;;;86.30;47.97;;;;;;;2.31;90.47;103404.63;4769182;30;20047;-80
2022/01/25 07:36:52;;;;;;;86.07;48.75;;;;;;;2.31;91.08;103408.16;4769259;29;20641;-80
2022/01/25 07:39:18;;;;;;;90.25;48.83;;;;;;;2.33;90.72;103410.84;4769022;30;20444;-80
2022/01/25 07:41:45;;;;;;;85.00;46.30;;;;;;;2.32;91.15;103417.78;4785421;29;20038;-80
2022/01/25 07:44:10;;;;;;;74.43;39.95;;;;;;;2.34;90.90;103415.25;4785147;29;20047;-80
2022/01/25 07:46:36;;;;;;;93.10;50.80;;;;;;;2.34;90.55;103410.91;4754466;30;20038;-80
2022/01/25 07:49:02;;;;;;;86.72;47.92;;;;;;;2.34;90.72;103410.91;4768895;29;20059;-80
2022/01/25 07:51:28;;;;;;;84.40;46.65;;;;;;;2.34;90.77;103408.31;4754497;30;20122;-80
2022/01/25 07:53:55;;;;;;;91.95;51.25;;;;;;;2.35;89.90;103409.22;4783647;30;20076;-80
2022/01/25 07:56:20;;;;;;;92.50;49.67;;;;;;;2.40;90.78;103410.38;4755656;30;20040;-81
2022/01/25 07:58:46;;;;;;;89.85;49.42;;;;;;;2.41;89.86;103408.66;4756047;30;20055;-80
2022/01/25 08:01:12;;;;;;;81.57;45.55;;;;;;;2.41;90.56;103420.00;4750883;30;20063;-80
2022/01/25 08:03:37;;;;;;;95.82;52.15;;;;;;;2.42;90.02;103415.66;4765486;30;20062;-80
2022/01/25 08:06:03;;;;;;;78.25;42.28;;;;;;;2.40;90.00;103407.75;4750817;30;20104;-80
2022/01/25 08:08:29;;;;;;;109.55;56.22;;;;;;;2.40;88.87;103406.81;4765719;30;20465;-80
2022/01/25 08:10:55;;;;;;;106.53;57.03;;;;;;;2.41;88.79;103412.16;4751040;30;20039;-80
2022/01/25 08:13:20;;;;;;;102.82;57.97;;;;;;;2.45;89.00;103405.34;4781138;29;20451;-80
2022/01/25 08:15:46;;;;;;;82.82;47.35;;;;;;;2.46;88.58;103410.69;4770896;29;20618;-80
2022/01/25 08:18:11;;;;;;;98.82;52.63;;;;;;;2.45;88.73;103418.44;4756516;30;20541;-80
2022/01/25 08:20:37;;;;;;;101.88;55.47;;;;;;;2.48;88.69;103414.28;4771818;29;20508;-81
2022/01/25 08:23:03;;;;;;;93.72;51.03;;;;;;;2.49;88.24;103415.16;4771554;30;20047;-81
2022/01/25 08:25:28;;;;;;;97.47;54.55;;;;;;;2.51;88.95;103418.75;4771174;30;20035;-81
2022/01/25 08:27:55;;;;;;;90.18;50.95;;;;;;;2.51;88.24;103419.66;4784596;29;20063;-81
2022/01/25 08:30:21;;;;;;;95.18;50.33;;;;;;;2.53;88.89;103423.25;4771740;30;20063;-81
2022/01/25 08:32:46;;;;;;;85.95;47.47;;;;;;;2.52;88.68;103420.56;4770996;30;20043;-81
2022/01/25 08:35:12;;;;;;;93.38;52.40;;;;;;;2.55;88.93;103421.63;4771399;29;20086;-80
2022/01/25 08:37:38;;;;;;;92.85;50.53;;;;;;;2.56;88.11;103418.19;4771279;30;20493;-80
2022/01/25 08:40:07;;;;;;;87.18;49.53;;;;;;;2.59;88.74;103417.44;4787386;29;20051;-80
2022/01/25 08:42:35;;;;;;;93.07;50.92;;;;;;;2.60;88.82;103419.25;4771307;29;20227;-80
2022/01/25 08:45:01;;;;;;;90.68;50.33;;;;;;;2.61;88.80;103423.66;4770783;29;20045;-81
2022/01/25 08:47:29;;;;;;;89.50;49.10;;;;;;;2.63;88.95;103424.66;4771311;29;20175;-81
2022/01/25 08:49:55;;;;;;;106.72;55.92;;;;;;;2.63;87.79;103411.56;4771080;30;20039;-81
2022/01/25 08:52:20;;;;;;;103.28;54.03;;;;;;;2.61;87.27;103414.91;4785987;29;20439;-81
2022/01/25 08:54:46;;;;;;;115.60;58.92;;;;;;;2.64;86.51;103418.56;4756151;29;20047;-80
2022/01/25 08:57:11;;;;;;;112.25;60.13;;;;;;;2.59;86.44;103409.59;4787277;29;20093;-81
2022/01/25 08:59:37;;;;;;;103.60;53.78;;;;;;;2.63;87.41;103418.53;4770789;30;20035;-81
2022/01/25 09:02:04;;;;;;;113.75;59.75;;;;;;;2.65;86.45;103414.28;4741568;30;20500;-81
2022/01/25 09:04:29;;;;;;;100.88;51.08;;;;;;;2.67;87.17;103420.44;4770816;30;20048;-81
2022/01/25 09:06:55;;;;;;;107.97;57.45;;;;;;;2.67;86.50;103428.31;4756012;29;20454;-80
2022/01/25 09:09:21;;;;;;;121.68;61.85;;;;;;;2.69;86.92;103424.94;4786383;29;20050;-81
2022/01/25 09:11:47;;;;;;;109.65;57.80;;;;;;;2.72;86.91;103425.13;4786533;29;20505;-81
2022/01/25 09:14:12;;;;;;;105.57;57.97;;;;;;;2.73;86.91;103426.03;4786183;29;20039;-80
2022/01/25 09:16:39;;;;;;;100.13;53.28;;;;;;;2.76;87.10;103432.28;4752692;30;20079;-81
2022/01/25 09:19:05;;;;;;;111.88;59.03;;;;;;;2.75;87.30;103432.25;4767758;30;20052;-81
2022/01/25 09:21:31;;;;;;;115.47;65.85;;;;;;;2.80;87.08;103436.00;4748573;29;20038;-81
2022/01/25 09:23:57;;;;;;;113.95;61.67;;;;;;;2.81;87.59;103429.91;4756030;29;20401;-81
2022/01/25 09:26:23;;;;;;;109.15;59.53;;;;;;;2.82;87.42;103436.97;4784258;29;20043;-81
2022/01/25 09:28:51;;;;;;;114.57;60.70;;;;;;;2.86;87.25;103438.91;4771415;30;20518;-81
2022/01/25 09:31:17;;;;;;;111.10;60.50;;;;;;;2.86;86.59;103443.25;4771029;30;20526;-81
2022/01/25 09:33:42;;;;;;;108.20;57.33;;;;;;;2.88;87.28;103445.13;4785445;29;20138;-81
2022/01/25 09:36:08;;;;;;;117.00;58.38;;;;;;;2.90;87.04;103445.22;4740773;29;20122;-81
2022/01/25 09:38:34;;;;;;;113.20;61.00;;;;;;;2.91;86.52;103442.66;4755352;29;20392;-81
2022/01/25 09:41:01;;;;;;;101.43;56.53;;;;;;;2.93;87.30;103441.03;4770584;30;20373;-81
2022/01/25 09:43:27;;;;;;;111.03;58.75;;;;;;;2.95;86.45;103436.78;4770150;30;20104;-80
2022/01/25 09:45:53;;;;;;;112.65;62.80;;;;;;;2.97;86.93;103443.00;4760094;30;20102;-81
2022/01/25 09:48:19;;;;;;;111.22;60.95;;;;;;;2.99;86.53;103438.75;4784473;29;20048;-81
2022/01/25 09:50:46;;;;;;;110.47;59.28;;;;;;;2.99;87.08;103441.34;4740345;30;20051;-81
2022/01/25 09:53:11;;;;;;;116.40;59.38;;;;;;;3.02;86.36;103453.69;4781560;29;20135;-81
2022/01/25 09:55:42;;;;;;;100.05;54.15;;;;;;;3.04;86.23;103449.41;4782539;29;20064;-81
2022/01/25 09:58:09;;;;;;;115.70;60.73;;;;;;;3.05;86.38;103450.34;4768975;30;20039;-81
2022/01/25 10:00:36;;;;;;;110.75;58.80;;;;;;;3.06;85.34;103459.97;4769445;30;20042;-81
2022/01/25 10:03:10;;;;;;;119.72;59.08;;;;;;;3.07;84.88;103459.19;4769994;29;20055;-81
2022/01/25 10:05:43;;;;;;;106.18;60.17;;;;;;;3.09;84.97;103457.50;4769553;30;20039;-81
2022/01/25 10:08:14;;;;;;;109.95;57.42;;;;;;;3.08;85.25;103454.00;4784296;30;20040;-81
2022/01/25 10:10:56;;;;;;;109.07;56.05;;;;;;;3.09;86.08;103449.66;4783572;29;20043;-81
2022/01/25 10:13:33;;;;;;;111.75;57.65;;;;;;;3.11;85.35;103456.75;4768989;30;20476;-81
2022/01/25 10:16:14;;;;;;;107.80;60.30;;;;;;;3.16;85.15;103459.63;4762800;30;20095;-81
2022/01/25 10:18:43;;;;;;;110.53;58.83;;;;;;;3.16;85.29;103463.13;4766121;30;20055;-81
2022/01/25 10:21:14;;;;;;;108.72;59.95;;;;;;;3.16;85.37;103450.03;4775552;29;20118;-81
2022/01/25 10:23:42;;;;;;;111.45;56.88;;;;;;;3.17;85.12;103453.56;4783103;29;20035;-81
2022/01/25 10:26:08;;;;;;;111.95;59.20;;;;;;;3.15;84.54;103458.72;4769629;29;20092;-81
2022/01/25 10:28:34;;;;;;;106.88;59.25;;;;;;;3.19;84.00;103462.38;4753791;30;20055;-81
2022/01/25 10:31:04;;;;;;;101.80;58.03;;;;;;;3.18;84.54;103458.88;4784005;29;20121;-80
2022/01/25 10:33:36;;;;;;;105.13;57.75;;;;;;;3.20;83.87;103454.63;4769545;30;20035;-81
2022/01/25 10:36:19;;;;;;;110.93;59.78;;;;;;;3.25;83.77;103456.56;4768476;30;20039;-80
2022/01/25 10:38:47;;;;;;;108.15;59.08;;;;;;;3.24;84.01;103450.44;4758614;30;20085;-81
2022/01/25 10:41:19;;;;;;;108.55;59.85;;;;;;;3.28;84.38;103449.75;4785533;29;20031;-80
2022/01/25 10:43:47;;;;;;;103.65;57.05;;;;;;;3.29;83.52;103448.97;4768747;30;20043;-81
2022/01/25 10:46:24;;;;;;;110.93;57.45;;;;;;;3.31;83.57;103447.28;4768955;29;20059;-81
2022/01/25 10:48:55;;;;;;;103.57;55.65;;;;;;;3.33;83.60;103450.88;4768363;30;20043;-81
2022/01/25 10:51:39;;;;;;;103.75;57.63;;;;;;;3.32;83.66;103448.22;4769396;30;20126;-81
2022/01/25 10:54:10;;;;;;;100.47;57.05;;;;;;;3.37;83.69;103449.34;4785346;29;20457;-81
2022/01/25 10:56:44;;;;;;;112.95;64.13;;;;;;;3.40;82.92;103447.75;4785310;29;20040;-81
2022/01/25 10:59:13;;;;;;;98.68;56.25;;;;;;;3.41;83.89;103451.25;4786419;29;20075;-81
2022/01/25 11:01:45;;;;;;;117.90;65.07;;;;;;;3.43;84.03;103447.91;4769766;29;20035;-81
2022/01/25 11:04:14;;;;;;;103.78;57.40;;;;;;;3.45;84.07;103454.13;4770030;29;20126;-81
2022/01/25 11:06:41;;;;;;;103.28;57.90;;;;;;;3.48;83.24;103452.47;4769541;29;20038;-80
2022/01/25 11:09:10;;;;;;;99.20;57.80;;;;;;;3.48;82.92;103455.09;4768660;30;20047;-81
2022/01/25 11:11:41;;;;;;;109.32;60.15;;;;;;;3.48;82.56;103463.84;4785507;29;20477;-81
2022/01/25 11:16:53;;;;;;;98.55;55.03;;;;;;;3.52;83.03;103465.81;4771405;29;20043;-81
2022/01/25 11:19:20;;;;;;;106.05;56.88;;;;;;;3.53;83.21;103458.84;4754681;30;20046;-81
2022/01/25 11:21:47;;;;;;;97.95;55.63;;;;;;;3.56;82.62;103464.22;4755087;29;20043;-81
2022/01/25 11:24:15;;;;;;;91.07;52.40;;;;;;;3.55;83.21;103457.19;4769122;30;20027;-81
2022/01/25 11:26:45;;;;;;;101.53;57.83;;;;;;;3.53;82.56;103458.84;4784343;29;20036;-83
2022/01/25 11:29:11;;;;;;;106.50;59.95;;;;;;;3.53;82.99;103450.97;4769246;30;20058;-81
2022/01/25 11:31:44;;;;;;;104.60;58.50;;;;;;;3.53;82.70;103457.09;4770155;30;20388;-81
2022/01/25 11:34:14;;;;;;;96.88;54.70;;;;;;;3.54;82.62;103460.66;4768973;29;20338;-81
2022/01/25 11:36:52;;;;;;;100.22;55.97;;;;;;;3.57;81.94;103455.56;4769119;29;20100;-81
2022/01/25 11:39:24;;;;;;;96.80;55.47;;;;;;;3.56;82.30;103452.03;4784448;29;20235;-81
2022/01/25 11:41:50;;;;;;;;;;;;;;;3.65;83.41;103462.06;4769703;29;20377;-81
2022/01/25 11:44:26;;;;;;;108.50;54.20;;;;;;;3.61;82.84;103455.78;4784235;30;19924;-81
2022/01/25 11:47:12;;;;;;;94.38;53.85;;;;;;;3.60;82.55;103447.84;4784426;29;20098;-81
2022/01/25 11:49:56;;;;;;;101.22;57.17;;;;;;;3.58;81.24;103458.22;4771606;30;20039;-81
2022/01/25 11:52:24;;;;;;;94.72;53.47;;;;;;;3.54;80.46;103458.94;4787363;29;20042;-81
2022/01/25 11:55:16;;;;;;;106.22;54.90;;;;;;;3.54;80.90;103453.69;4786999;29;20130;-81
2022/01/25 11:58:12;;;;;;;94.45;53.10;;;;;;;3.56;82.29;103456.34;4740472;30;20066;-81
2022/01/25 12:00:47;;;;;;;95.03;53.92;;;;;;;3.53;80.68;103451.88;4753321;30;20047;-81
2022/01/25 12:03:23;;;;;;;97.15;54.38;;;;;;;3.55;81.80;103452.84;4772335;30;20047;-81
2022/01/25 12:05:59;;;;;;;104.47;55.95;;;;;;;3.56;81.77;103441.56;4787204;29;20534;-81
2022/01/25 12:08:38;;;;;;;100.88;54.13;;;;;;;3.60;81.63;103446.09;4789243;29;20049;-81
2022/01/25 12:11:24;;;;;;;98.32;56.13;;;;;;;3.62;82.27;103443.56;4788867;29;20039;-81
2022/01/25 12:14:16;;;;;;;101.50;55.25;;;;;;;3.64;82.52;103445.44;4772229;30;20104;-81
2022/01/25 12:16:56;;;;;;;98.20;51.90;;;;;;;3.62;81.96;103428.75;4774506;30;20131;-81
2022/01/25 12:19:48;;;;;;;100.55;55.10;;;;;;;3.67;81.91;103432.47;4788283;29;20524;-81
2022/01/25 12:25:18;;;;;;;96.45;54.85;;;;;;;3.64;80.61;103434.06;4771691;29;20135;-81
2022/01/25 12:27:56;;;;;;;99.45;52.90;;;;;;;3.63;80.18;103432.25;4771982;30;20035;-81
2022/01/25 12:30:25;;;;;;;92.32;52.97;;;;;;;3.63;80.08;103427.00;4786528;29;20059;-81
2022/01/25 12:33:02;;;;;;;96.38;52.65;;;;;;;3.65;80.57;103428.00;4787866;29;20073;-81
2022/01/25 12:35:33;;;;;;;95.55;53.35;;;;;;;3.58;80.76;103413.69;4787801;29;20039;-81
2022/01/25 12:38:01;;;;;;;97.28;54.22;;;;;;;3.65;80.12;103428.00;4771566;29;20132;-81
2022/01/25 12:40:31;;;;;;;102.03;53.00;;;;;;;3.63;79.63;103421.78;4786579;29;20058;-81
2022/01/25 12:43:18;;;;;;;99.97;53.55;;;;;;;3.65;80.80;103415.78;4756745;30;20039;-81
2022/01/25 12:45:51;;;;;;;90.80;51.72;;;;;;;3.65;80.26;103412.25;4771309;30;20039;-81
2022/01/25 12:48:20;;;;;;;94.25;53.97;;;;;;;3.67;80.04;103413.25;4787922;29;20118;-81
2022/01/25 12:50:50;;;;;;;102.68;54.38;;;;;;;3.67;80.76;103408.00;4771269;30;20112;-81
2022/01/25 12:53:19;;;;;;;97.63;52.40;;;;;;;3.69;80.50;103403.75;4768328;30;20032;-81
2022/01/25 12:55:49;;;;;;;98.78;53.28;;;;;;;3.73;80.30;103412.63;4777184;29;20442;-81
2022/01/25 12:58:17;;;;;;;97.28;51.25;;;;;;;3.72;79.13;103409.13;4787352;29;20078;-81
2022/01/25 13:00:46;;;;;;;90.32;50.85;;;;;;;3.70;79.74;103404.63;4785346;29;20039;-81
2022/01/25 13:03:20;;;;;;;99.38;52.95;;;;;;;3.71;79.02;103398.53;4787897;29;20055;-81
2022/01/25 13:05:51;;;;;;;93.85;52.33;;;;;;;3.69;79.58;103390.63;4786073;29;20092;-81
2022/01/25 13:08:26;;;;;;;123.30;65.20;;;;;;;3.73;79.69;103392.56;4786065;29;20031;-81
2022/01/25 13:10:56;;;;;;;100.57;53.80;;;;;;;3.74;79.82;103383.00;4787261;29;20537;-81
2022/01/25 13:13:28;;;;;;;104.05;55.55;;;;;;;3.75;79.64;103377.81;4771430;29;20385;-81